sensor_id;sensor_type;location;lat;lon;timestamp;P1;durP1;ratioP1;P2;durP2;ratioP2
42978;SDS011;28616;44.746;19.678;2022-12-05T00:01:29;69.28;;;28.40;;
42978;SDS011;28616;44.746;19.678;2022-12-05T00:03:56;66.35;;;26.63;;
42978;SDS011;28616;44.746;19.678;2022-12-05T00:06:24;67.18;;;27.25;;
42978;SDS011;28616;44.746;19.678;2022-12-05T00:08:50;96.63;;;37.22;;
42978;SDS011;28616;44.746;19.678;2022-12-05T00:11:18;91.03;;;35.83;;
42978;SDS011;28616;44.746;19.678;2022-12-05T00:13:46;77.75;;;32.30;;
42978;SDS011;28616;44.746;19.678;2022-12-05T00:16:14;50.33;;;22.02;;
42978;SDS011;28616;44.746;19.678;2022-12-05T00:18:42;44.58;;;19.40;;
42978;SDS011;28616;44.746;19.678;2022-12-05T00:21:12;38.88;;;16.92;;
42978;SDS011;28616;44.746;19.678;2022-12-05T00:23:40;31.88;;;14.95;;
42978;SDS011;28616;44.746;19.678;2022-12-05T00:26:06;38.42;;;17.20;;
42978;SDS011;28616;44.746;19.678;2022-12-05T00:28:33;34.38;;;13.63;;
42978;SDS011;28616;44.746;19.678;2022-12-05T00:31:02;27.63;;;12.55;;
42978;SDS011;28616;44.746;19.678;2022-12-05T00:33:29;31.05;;;14.90;;
42978;SDS011;28616;44.746;19.678;2022-12-05T00:35:55;33.42;;;15.15;;
42978;SDS011;28616;44.746;19.678;2022-12-05T00:38:26;40.67;;;16.27;;
42978;SDS011;28616;44.746;19.678;2022-12-05T00:40:52;39.22;;;16.15;;
42978;SDS011;28616;44.746;19.678;2022-12-05T00:43:17;41.45;;;17.80;;
42978;SDS011;28616;44.746;19.678;2022-12-05T00:45:43;50.53;;;20.60;;
42978;SDS011;28616;44.746;19.678;2022-12-05T00:48:09;47.08;;;18.95;;
42978;SDS011;28616;44.746;19.678;2022-12-05T00:50:34;37.13;;;16.70;;
42978;SDS011;28616;44.746;19.678;2022-12-05T00:53:00;38.30;;;16.38;;
42978;SDS011;28616;44.746;19.678;2022-12-05T00:55:26;38.60;;;15.32;;
42978;SDS011;28616;44.746;19.678;2022-12-05T00:57:52;28.35;;;13.25;;
42978;SDS011;28616;44.746;19.678;2022-12-05T01:00:17;36.67;;;13.73;;
42978;SDS011;28616;44.746;19.678;2022-12-05T01:02:43;35.78;;;14.98;;
42978;SDS011;28616;44.746;19.678;2022-12-05T01:05:09;39.65;;;16.75;;
42978;SDS011;28616;44.746;19.678;2022-12-05T01:07:35;28.15;;;13.52;;
42978;SDS011;28616;44.746;19.678;2022-12-05T01:10:01;35.83;;;15.85;;
42978;SDS011;28616;44.746;19.678;2022-12-05T01:12:27;36.00;;;16.25;;
42978;SDS011;28616;44.746;19.678;2022-12-05T01:14:53;33.47;;;15.23;;
42978;SDS011;28616;44.746;19.678;2022-12-05T01:17:19;38.10;;;17.17;;
42978;SDS011;28616;44.746;19.678;2022-12-05T01:19:45;31.25;;;14.82;;
42978;SDS011;28616;44.746;19.678;2022-12-05T01:22:11;30.35;;;14.43;;
42978;SDS011;28616;44.746;19.678;2022-12-05T01:24:36;44.88;;;16.25;;
42978;SDS011;28616;44.746;19.678;2022-12-05T01:27:02;42.67;;;19.65;;
42978;SDS011;28616;44.746;19.678;2022-12-05T01:29:28;45.65;;;18.42;;
42978;SDS011;28616;44.746;19.678;2022-12-05T01:31:54;50.72;;;22.30;;
42978;SDS011;28616;44.746;19.678;2022-12-05T01:34:19;46.47;;;19.73;;
42978;SDS011;28616;44.746;19.678;2022-12-05T01:36:45;44.97;;;17.85;;
42978;SDS011;28616;44.746;19.678;2022-12-05T01:39:11;33.13;;;13.48;;
42978;SDS011;28616;44.746;19.678;2022-12-05T01:41:39;31.73;;;14.00;;
42978;SDS011;28616;44.746;19.678;2022-12-05T01:46:38;37.70;;;17.15;;
42978;SDS011;28616;44.746;19.678;2022-12-05T01:49:15;36.80;;;17.45;;
42978;SDS011;28616;44.746;19.678;2022-12-05T01:51:57;33.83;;;14.35;;
42978;SDS011;28616;44.746;19.678;2022-12-05T01:54:30;34.92;;;15.93;;
42978;SDS011;28616;44.746;19.678;2022-12-05T01:56:58;40.85;;;18.67;;
42978;SDS011;28616;44.746;19.678;2022-12-05T01:59:27;28.50;;;13.43;;
42978;SDS011;28616;44.746;19.678;2022-12-05T02:01:57;24.42;;;12.13;;
42978;SDS011;28616;44.746;19.678;2022-12-05T02:04:23;27.27;;;12.90;;
42978;SDS011;28616;44.746;19.678;2022-12-05T02:06:49;30.30;;;14.57;;
42978;SDS011;28616;44.746;19.678;2022-12-05T02:09:14;28.90;;;11.63;;
42978;SDS011;28616;44.746;19.678;2022-12-05T02:11:49;28.92;;;11.85;;
42978;SDS011;28616;44.746;19.678;2022-12-05T02:30:56;35.58;;;15.07;;
42978;SDS011;28616;44.746;19.678;2022-12-05T02:41:51;28.45;;;13.85;;
42978;SDS011;28616;44.746;19.678;2022-12-05T02:44:29;28.75;;;13.23;;
42978;SDS011;28616;44.746;19.678;2022-12-05T02:47:06;28.88;;;13.23;;
42978;SDS011;28616;44.746;19.678;2022-12-05T02:49:34;31.48;;;14.88;;
42978;SDS011;28616;44.746;19.678;2022-12-05T02:52:02;28.25;;;13.70;;
42978;SDS011;28616;44.746;19.678;2022-12-05T02:54:32;32.17;;;14.48;;
42978;SDS011;28616;44.746;19.678;2022-12-05T02:57:02;30.67;;;15.43;;
42978;SDS011;28616;44.746;19.678;2022-12-05T02:59:29;33.20;;;15.30;;
42978;SDS011;28616;44.746;19.678;2022-12-05T03:01:55;30.92;;;14.15;;
42978;SDS011;28616;44.746;19.678;2022-12-05T03:04:22;31.15;;;14.63;;
42978;SDS011;28616;44.746;19.678;2022-12-05T03:06:59;31.73;;;15.68;;
42978;SDS011;28616;44.746;19.678;2022-12-05T03:12:13;35.38;;;16.45;;
42978;SDS011;28616;44.746;19.678;2022-12-05T03:15:08;36.38;;;15.55;;
42978;SDS011;28616;44.746;19.678;2022-12-05T03:17:36;30.42;;;15.45;;
42978;SDS011;28616;44.746;19.678;2022-12-05T03:20:21;34.30;;;14.77;;
42978;SDS011;28616;44.746;19.678;2022-12-05T03:23:02;30.55;;;13.27;;
42978;SDS011;28616;44.746;19.678;2022-12-05T03:25:49;27.42;;;13.05;;
42978;SDS011;28616;44.746;19.678;2022-12-05T03:28:30;29.85;;;13.43;;
42978;SDS011;28616;44.746;19.678;2022-12-05T03:31:08;26.95;;;13.45;;
42978;SDS011;28616;44.746;19.678;2022-12-05T03:33:41;29.58;;;13.25;;
42978;SDS011;28616;44.746;19.678;2022-12-05T03:44:12;29.65;;;13.05;;
42978;SDS011;28616;44.746;19.678;2022-12-05T03:47:04;33.55;;;15.73;;
42978;SDS011;28616;44.746;19.678;2022-12-05T03:49:51;39.30;;;16.98;;
42978;SDS011;28616;44.746;19.678;2022-12-05T03:52:28;37.50;;;16.17;;
42978;SDS011;28616;44.746;19.678;2022-12-05T03:55:01;37.30;;;15.63;;
42978;SDS011;28616;44.746;19.678;2022-12-05T03:57:34;37.97;;;15.55;;
42978;SDS011;28616;44.746;19.678;2022-12-05T04:00:18;36.30;;;14.52;;
42978;SDS011;28616;44.746;19.678;2022-12-05T04:05:57;32.10;;;14.10;;
42978;SDS011;28616;44.746;19.678;2022-12-05T04:08:10;36.63;;;16.13;;
42978;SDS011;28616;44.746;19.678;2022-12-05T04:13:18;34.67;;;16.23;;
42978;SDS011;28616;44.746;19.678;2022-12-05T04:16:02;35.40;;;15.43;;
42978;SDS011;28616;44.746;19.678;2022-12-05T04:19:02;31.52;;;15.38;;
42978;SDS011;28616;44.746;19.678;2022-12-05T04:21:51;31.00;;;14.63;;
42978;SDS011;28616;44.746;19.678;2022-12-05T04:24:26;27.40;;;14.00;;
42978;SDS011;28616;44.746;19.678;2022-12-05T04:38:34;30.15;;;13.35;;
42978;SDS011;28616;44.746;19.678;2022-12-05T04:41:10;26.88;;;13.48;;
42978;SDS011;28616;44.746;19.678;2022-12-05T04:43:40;27.05;;;12.20;;
42978;SDS011;28616;44.746;19.678;2022-12-05T04:46:09;27.08;;;12.48;;
42978;SDS011;28616;44.746;19.678;2022-12-05T04:48:38;29.10;;;12.68;;
42978;SDS011;28616;44.746;19.678;2022-12-05T04:51:06;36.38;;;16.90;;
42978;SDS011;28616;44.746;19.678;2022-12-05T04:53:36;36.20;;;17.35;;
42978;SDS011;28616;44.746;19.678;2022-12-05T04:56:07;34.73;;;15.50;;
42978;SDS011;28616;44.746;19.678;2022-12-05T04:58:34;27.33;;;13.73;;
42978;SDS011;28616;44.746;19.678;2022-12-05T05:03:37;25.42;;;12.93;;
42978;SDS011;28616;44.746;19.678;2022-12-05T05:06:10;25.67;;;12.43;;
42978;SDS011;28616;44.746;19.678;2022-12-05T05:08:44;27.30;;;12.80;;
42978;SDS011;28616;44.746;19.678;2022-12-05T05:11:19;28.33;;;13.80;;
42978;SDS011;28616;44.746;19.678;2022-12-05T05:13:45;29.83;;;14.95;;
42978;SDS011;28616;44.746;19.678;2022-12-05T05:16:12;29.55;;;14.75;;
42978;SDS011;28616;44.746;19.678;2022-12-05T05:18:42;37.45;;;15.98;;
42978;SDS011;28616;44.746;19.678;2022-12-05T05:21:13;41.53;;;17.75;;
42978;SDS011;28616;44.746;19.678;2022-12-05T05:23:40;37.25;;;16.95;;
42978;SDS011;28616;44.746;19.678;2022-12-05T05:26:06;39.50;;;18.17;;
42978;SDS011;28616;44.746;19.678;2022-12-05T05:28:32;44.72;;;20.08;;
42978;SDS011;28616;44.746;19.678;2022-12-05T05:31:02;49.47;;;22.10;;
42978;SDS011;28616;44.746;19.678;2022-12-05T05:33:28;62.10;;;30.70;;
42978;SDS011;28616;44.746;19.678;2022-12-05T05:35:54;59.58;;;26.95;;
42978;SDS011;28616;44.746;19.678;2022-12-05T05:38:20;58.47;;;25.45;;
42978;SDS011;28616;44.746;19.678;2022-12-05T05:40:46;49.65;;;23.27;;
42978;SDS011;28616;44.746;19.678;2022-12-05T05:43:11;61.30;;;25.27;;
42978;SDS011;28616;44.746;19.678;2022-12-05T05:45:37;50.10;;;22.98;;
42978;SDS011;28616;44.746;19.678;2022-12-05T05:48:03;53.10;;;22.50;;
42978;SDS011;28616;44.746;19.678;2022-12-05T05:50:29;40.13;;;19.77;;
42978;SDS011;28616;44.746;19.678;2022-12-05T05:52:55;39.13;;;18.52;;
42978;SDS011;28616;44.746;19.678;2022-12-05T05:55:21;45.70;;;20.50;;
42978;SDS011;28616;44.746;19.678;2022-12-05T05:57:46;45.95;;;20.40;;
42978;SDS011;28616;44.746;19.678;2022-12-05T06:00:13;67.10;;;29.80;;
42978;SDS011;28616;44.746;19.678;2022-12-05T06:02:39;43.75;;;22.50;;
42978;SDS011;28616;44.746;19.678;2022-12-05T06:05:05;43.20;;;21.92;;
42978;SDS011;28616;44.746;19.678;2022-12-05T06:07:31;58.00;;;27.42;;
42978;SDS011;28616;44.746;19.678;2022-12-05T06:09:57;57.03;;;28.23;;
42978;SDS011;28616;44.746;19.678;2022-12-05T06:12:23;48.88;;;25.08;;
42978;SDS011;28616;44.746;19.678;2022-12-05T06:14:49;57.13;;;28.08;;
42978;SDS011;28616;44.746;19.678;2022-12-05T06:17:15;54.90;;;26.23;;
42978;SDS011;28616;44.746;19.678;2022-12-05T06:19:41;45.35;;;23.92;;
42978;SDS011;28616;44.746;19.678;2022-12-05T06:22:07;55.42;;;24.67;;
42978;SDS011;28616;44.746;19.678;2022-12-05T06:24:33;56.30;;;24.25;;
42978;SDS011;28616;44.746;19.678;2022-12-05T06:26:58;54.28;;;26.35;;
42978;SDS011;28616;44.746;19.678;2022-12-05T06:29:24;55.90;;;26.40;;
42978;SDS011;28616;44.746;19.678;2022-12-05T06:31:50;54.55;;;27.48;;
42978;SDS011;28616;44.746;19.678;2022-12-05T06:34:15;56.45;;;26.35;;
42978;SDS011;28616;44.746;19.678;2022-12-05T06:36:41;52.40;;;25.58;;
42978;SDS011;28616;44.746;19.678;2022-12-05T06:39:07;67.15;;;32.00;;
42978;SDS011;28616;44.746;19.678;2022-12-05T06:41:33;80.07;;;34.85;;
42978;SDS011;28616;44.746;19.678;2022-12-05T06:43:59;101.45;;;45.53;;
42978;SDS011;28616;44.746;19.678;2022-12-05T06:46:25;154.38;;;58.47;;
42978;SDS011;28616;44.746;19.678;2022-12-05T06:48:52;139.07;;;55.30;;
42978;SDS011;28616;44.746;19.678;2022-12-05T06:51:19;129.20;;;54.28;;
42978;SDS011;28616;44.746;19.678;2022-12-05T06:53:44;103.70;;;45.35;;
42978;SDS011;28616;44.746;19.678;2022-12-05T06:56:12;107.25;;;46.88;;
42978;SDS011;28616;44.746;19.678;2022-12-05T06:58:40;152.48;;;69.75;;
42978;SDS011;28616;44.746;19.678;2022-12-05T07:01:14;140.73;;;63.33;;
42978;SDS011;28616;44.746;19.678;2022-12-05T07:04:21;100.43;;;48.33;;
42978;SDS011;28616;44.746;19.678;2022-12-05T07:06:48;108.05;;;50.65;;
42978;SDS011;28616;44.746;19.678;2022-12-05T07:09:16;90.00;;;45.40;;
42978;SDS011;28616;44.746;19.678;2022-12-05T07:11:47;94.40;;;48.35;;
42978;SDS011;28616;44.746;19.678;2022-12-05T07:14:14;77.30;;;36.97;;
42978;SDS011;28616;44.746;19.678;2022-12-05T07:16:41;78.65;;;37.88;;
42978;SDS011;28616;44.746;19.678;2022-12-05T07:19:06;66.32;;;32.75;;
42978;SDS011;28616;44.746;19.678;2022-12-05T07:21:33;65.10;;;33.08;;
42978;SDS011;28616;44.746;19.678;2022-12-05T07:23:59;63.58;;;34.33;;
42978;SDS011;28616;44.746;19.678;2022-12-05T07:26:24;88.88;;;43.88;;
42978;SDS011;28616;44.746;19.678;2022-12-05T07:28:50;135.20;;;56.03;;
42978;SDS011;28616;44.746;19.678;2022-12-05T07:31:19;90.13;;;43.45;;
42978;SDS011;28616;44.746;19.678;2022-12-05T07:33:47;79.43;;;42.17;;
42978;SDS011;28616;44.746;19.678;2022-12-05T07:36:14;60.50;;;29.25;;
42978;SDS011;28616;44.746;19.678;2022-12-05T07:38:45;72.85;;;35.72;;
42978;SDS011;28616;44.746;19.678;2022-12-05T07:41:21;55.67;;;29.42;;
42978;SDS011;28616;44.746;19.678;2022-12-05T07:43:51;51.97;;;25.08;;
42978;SDS011;28616;44.746;19.678;2022-12-05T07:46:18;78.30;;;37.47;;
42978;SDS011;28616;44.746;19.678;2022-12-05T07:48:46;60.33;;;32.40;;
42978;SDS011;28616;44.746;19.678;2022-12-05T07:51:12;54.65;;;25.75;;
42978;SDS011;28616;44.746;19.678;2022-12-05T07:53:38;62.75;;;27.80;;
42978;SDS011;28616;44.746;19.678;2022-12-05T07:56:09;66.43;;;32.20;;
42978;SDS011;28616;44.746;19.678;2022-12-05T07:58:38;70.70;;;32.45;;
42978;SDS011;28616;44.746;19.678;2022-12-05T08:01:05;103.95;;;47.78;;
42978;SDS011;28616;44.746;19.678;2022-12-05T08:03:35;96.95;;;45.70;;
42978;SDS011;28616;44.746;19.678;2022-12-05T08:06:02;75.70;;;36.05;;
42978;SDS011;28616;44.746;19.678;2022-12-05T08:08:28;66.15;;;27.50;;
42978;SDS011;28616;44.746;19.678;2022-12-05T08:10:54;67.32;;;31.45;;
42978;SDS011;28616;44.746;19.678;2022-12-05T08:13:20;53.60;;;24.92;;
42978;SDS011;28616;44.746;19.678;2022-12-05T08:15:46;65.68;;;36.05;;
42978;SDS011;28616;44.746;19.678;2022-12-05T08:18:11;263.77;;;109.80;;
42978;SDS011;28616;44.746;19.678;2022-12-05T08:20:37;194.70;;;85.78;;
42978;SDS011;28616;44.746;19.678;2022-12-05T08:23:03;179.45;;;88.22;;
42978;SDS011;28616;44.746;19.678;2022-12-05T08:25:29;87.05;;;43.83;;
42978;SDS011;28616;44.746;19.678;2022-12-05T08:27:54;64.10;;;30.55;;
42978;SDS011;28616;44.746;19.678;2022-12-05T08:30:20;70.60;;;31.25;;
42978;SDS011;28616;44.746;19.678;2022-12-05T08:32:46;80.88;;;36.92;;
42978;SDS011;28616;44.746;19.678;2022-12-05T08:35:12;45.58;;;23.15;;
42978;SDS011;28616;44.746;19.678;2022-12-05T08:37:37;55.60;;;26.33;;
42978;SDS011;28616;44.746;19.678;2022-12-05T08:40:03;53.80;;;26.38;;
42978;SDS011;28616;44.746;19.678;2022-12-05T08:42:29;58.58;;;27.63;;
42978;SDS011;28616;44.746;19.678;2022-12-05T08:44:55;91.57;;;37.72;;
42978;SDS011;28616;44.746;19.678;2022-12-05T08:47:21;127.15;;;46.60;;
42978;SDS011;28616;44.746;19.678;2022-12-05T08:49:47;108.22;;;42.47;;
42978;SDS011;28616;44.746;19.678;2022-12-05T08:52:12;148.10;;;62.45;;
42978;SDS011;28616;44.746;19.678;2022-12-05T08:54:38;94.97;;;42.05;;
42978;SDS011;28616;44.746;19.678;2022-12-05T08:57:04;150.38;;;59.58;;
42978;SDS011;28616;44.746;19.678;2022-12-05T08:59:30;135.68;;;58.67;;
42978;SDS011;28616;44.746;19.678;2022-12-05T09:01:55;103.95;;;44.13;;
42978;SDS011;28616;44.746;19.678;2022-12-05T09:04:21;151.20;;;63.97;;
42978;SDS011;28616;44.746;19.678;2022-12-05T09:06:47;169.32;;;68.68;;
42978;SDS011;28616;44.746;19.678;2022-12-05T09:09:13;141.82;;;59.20;;
42978;SDS011;28616;44.746;19.678;2022-12-05T09:11:40;112.55;;;44.00;;
42978;SDS011;28616;44.746;19.678;2022-12-05T09:14:10;107.15;;;39.83;;
42978;SDS011;28616;44.746;19.678;2022-12-05T09:16:37;196.98;;;71.18;;
42978;SDS011;28616;44.746;19.678;2022-12-05T09:19:03;141.85;;;47.70;;
42978;SDS011;28616;44.746;19.678;2022-12-05T09:21:31;102.60;;;41.78;;
42978;SDS011;28616;44.746;19.678;2022-12-05T09:23:57;82.90;;;34.70;;
42978;SDS011;28616;44.746;19.678;2022-12-05T09:26:24;86.43;;;36.17;;
42978;SDS011;28616;44.746;19.678;2022-12-05T09:28:52;132.32;;;56.03;;
42978;SDS011;28616;44.746;19.678;2022-12-05T09:31:19;67.90;;;29.67;;
42978;SDS011;28616;44.746;19.678;2022-12-05T09:33:48;65.30;;;31.88;;
42978;SDS011;28616;44.746;19.678;2022-12-05T09:36:16;43.00;;;19.77;;
42978;SDS011;28616;44.746;19.678;2022-12-05T09:38:44;87.28;;;33.45;;
42978;SDS011;28616;44.746;19.678;2022-12-05T09:44:33;47.88;;;23.60;;
42978;SDS011;28616;44.746;19.678;2022-12-05T09:52:27;49.08;;;25.25;;
42978;SDS011;28616;44.746;19.678;2022-12-05T09:55:00;53.58;;;28.05;;
42978;SDS011;28616;44.746;19.678;2022-12-05T09:57:36;40.25;;;21.17;;
42978;SDS011;28616;44.746;19.678;2022-12-05T10:00:08;36.35;;;18.88;;
42978;SDS011;28616;44.746;19.678;2022-12-05T10:02:38;44.20;;;22.55;;
42978;SDS011;28616;44.746;19.678;2022-12-05T10:05:23;65.38;;;30.63;;
42978;SDS011;28616;44.746;19.678;2022-12-05T10:16:28;54.80;;;28.42;;
42978;SDS011;28616;44.746;19.678;2022-12-05T10:18:59;53.93;;;26.63;;
42978;SDS011;28616;44.746;19.678;2022-12-05T10:21:30;48.92;;;25.23;;
42978;SDS011;28616;44.746;19.678;2022-12-05T10:24:02;47.35;;;22.75;;
42978;SDS011;28616;44.746;19.678;2022-12-05T10:26:35;52.60;;;26.20;;
42978;SDS011;28616;44.746;19.678;2022-12-05T10:29:19;49.75;;;22.63;;
42978;SDS011;28616;44.746;19.678;2022-12-05T10:31:53;83.38;;;37.40;;
42978;SDS011;28616;44.746;19.678;2022-12-05T10:34:28;88.38;;;38.47;;
42978;SDS011;28616;44.746;19.678;2022-12-05T10:37:10;65.90;;;32.65;;
42978;SDS011;28616;44.746;19.678;2022-12-05T10:39:40;68.95;;;30.25;;
42978;SDS011;28616;44.746;19.678;2022-12-05T10:42:08;48.90;;;25.90;;
42978;SDS011;28616;44.746;19.678;2022-12-05T10:44:57;67.93;;;32.00;;
42978;SDS011;28616;44.746;19.678;2022-12-05T10:47:27;54.30;;;28.25;;
42978;SDS011;28616;44.746;19.678;2022-12-05T10:49:55;48.60;;;23.70;;
42978;SDS011;28616;44.746;19.678;2022-12-05T10:52:24;58.88;;;29.40;;
42978;SDS011;28616;44.746;19.678;2022-12-05T10:54:50;72.28;;;32.88;;
42978;SDS011;28616;44.746;19.678;2022-12-05T10:57:25;62.13;;;30.10;;
42978;SDS011;28616;44.746;19.678;2022-12-05T10:59:52;54.97;;;26.98;;
42978;SDS011;28616;44.746;19.678;2022-12-05T11:02:25;53.03;;;28.70;;
42978;SDS011;28616;44.746;19.678;2022-12-05T11:04:53;69.80;;;36.10;;
42978;SDS011;28616;44.746;19.678;2022-12-05T11:09:57;55.80;;;30.42;;
42978;SDS011;28616;44.746;19.678;2022-12-05T11:15:43;48.00;;;27.70;;
42978;SDS011;28616;44.746;19.678;2022-12-05T11:17:52;36.20;;;19.98;;
42978;SDS011;28616;44.746;19.678;2022-12-05T11:22:46;49.30;;;25.50;;
42978;SDS011;28616;44.746;19.678;2022-12-05T11:25:22;39.33;;;23.33;;
42978;SDS011;28616;44.746;19.678;2022-12-05T11:27:50;46.42;;;23.17;;
42978;SDS011;28616;44.746;19.678;2022-12-05T11:30:23;41.33;;;22.77;;
42978;SDS011;28616;44.746;19.678;2022-12-05T11:33:37;45.20;;;24.27;;
42978;SDS011;28616;44.746;19.678;2022-12-05T11:35:40;101.45;;;51.13;;
42978;SDS011;28616;44.746;19.678;2022-12-05T11:38:08;51.17;;;27.17;;
42978;SDS011;28616;44.746;19.678;2022-12-05T11:40:46;50.60;;;29.02;;
42978;SDS011;28616;44.746;19.678;2022-12-05T11:43:19;246.35;;;169.38;;
42978;SDS011;28616;44.746;19.678;2022-12-05T11:46:02;81.68;;;53.85;;
42978;SDS011;28616;44.746;19.678;2022-12-05T11:51:34;56.63;;;36.47;;
42978;SDS011;28616;44.746;19.678;2022-12-05T12:32:04;37.53;;;21.02;;
42978;SDS011;28616;44.746;19.678;2022-12-05T12:50:43;42.38;;;21.23;;
42978;SDS011;28616;44.746;19.678;2022-12-05T12:58:49;68.72;;;31.88;;
42978;SDS011;28616;44.746;19.678;2022-12-05T13:04:36;164.07;;;77.57;;
42978;SDS011;28616;44.746;19.678;2022-12-05T13:07:07;195.52;;;100.13;;
42978;SDS011;28616;44.746;19.678;2022-12-05T13:09:42;330.27;;;179.43;;
42978;SDS011;28616;44.746;19.678;2022-12-05T13:12:14;244.48;;;130.82;;
42978;SDS011;28616;44.746;19.678;2022-12-05T13:14:47;237.77;;;132.67;;
42978;SDS011;28616;44.746;19.678;2022-12-05T13:17:37;158.50;;;86.60;;
42978;SDS011;28616;44.746;19.678;2022-12-05T13:20:05;129.38;;;63.28;;
42978;SDS011;28616;44.746;19.678;2022-12-05T13:22:38;153.60;;;74.78;;
42978;SDS011;28616;44.746;19.678;2022-12-05T13:25:04;80.72;;;43.42;;
42978;SDS011;28616;44.746;19.678;2022-12-05T13:27:30;154.13;;;77.05;;
42978;SDS011;28616;44.746;19.678;2022-12-05T13:29:56;99.20;;;50.28;;
42978;SDS011;28616;44.746;19.678;2022-12-05T13:34:53;88.82;;;43.83;;
42978;SDS011;28616;44.746;19.678;2022-12-05T13:37:43;163.25;;;83.13;;
42978;SDS011;28616;44.746;19.678;2022-12-05T13:40:30;114.03;;;66.55;;
42978;SDS011;28616;44.746;19.678;2022-12-05T13:43:24;95.15;;;48.33;;
42978;SDS011;28616;44.746;19.678;2022-12-05T13:48:34;115.28;;;56.47;;
42978;SDS011;28616;44.746;19.678;2022-12-05T13:51:20;140.77;;;65.43;;
42978;SDS011;28616;44.746;19.678;2022-12-05T13:54:14;176.95;;;83.30;;
42978;SDS011;28616;44.746;19.678;2022-12-05T13:56:48;151.55;;;71.47;;
42978;SDS011;28616;44.746;19.678;2022-12-05T14:07:44;86.20;;;41.97;;
42978;SDS011;28616;44.746;19.678;2022-12-05T14:10:14;93.40;;;48.95;;
42978;SDS011;28616;44.746;19.678;2022-12-05T14:34:12;202.05;;;103.20;;
42978;SDS011;28616;44.746;19.678;2022-12-05T14:37:00;275.60;;;135.25;;
42978;SDS011;28616;44.746;19.678;2022-12-05T14:44:55;187.90;;;95.22;;
42978;SDS011;28616;44.746;19.678;2022-12-05T14:47:28;191.70;;;93.78;;
42978;SDS011;28616;44.746;19.678;2022-12-05T15:01:46;145.75;;;70.70;;
42978;SDS011;28616;44.746;19.678;2022-12-05T15:06:31;119.15;;;62.17;;
42978;SDS011;28616;44.746;19.678;2022-12-05T15:09:29;164.70;;;82.32;;
42978;SDS011;28616;44.746;19.678;2022-12-05T15:12:24;129.43;;;62.30;;
42978;SDS011;28616;44.746;19.678;2022-12-05T15:15:03;164.70;;;87.05;;
42978;SDS011;28616;44.746;19.678;2022-12-05T15:17:57;269.75;;;134.55;;
42978;SDS011;28616;44.746;19.678;2022-12-05T15:20:32;364.88;;;205.07;;
42978;SDS011;28616;44.746;19.678;2022-12-05T15:26:02;400.17;;;247.65;;
42978;SDS011;28616;44.746;19.678;2022-12-05T15:28:36;242.80;;;134.05;;
42978;SDS011;28616;44.746;19.678;2022-12-05T15:31:02;272.75;;;148.27;;
42978;SDS011;28616;44.746;19.678;2022-12-05T15:33:28;249.13;;;136.02;;
42978;SDS011;28616;44.746;19.678;2022-12-05T15:35:55;216.27;;;115.47;;
42978;SDS011;28616;44.746;19.678;2022-12-05T15:38:23;180.05;;;99.00;;
42978;SDS011;28616;44.746;19.678;2022-12-05T15:40:53;133.77;;;71.53;;
42978;SDS011;28616;44.746;19.678;2022-12-05T15:43:26;112.15;;;60.08;;
42978;SDS011;28616;44.746;19.678;2022-12-05T15:46:07;121.88;;;61.78;;
42978;SDS011;28616;44.746;19.678;2022-12-05T15:48:35;132.23;;;67.10;;
42978;SDS011;28616;44.746;19.678;2022-12-05T15:51:01;111.43;;;57.95;;
42978;SDS011;28616;44.746;19.678;2022-12-05T15:53:31;142.32;;;67.15;;
42978;SDS011;28616;44.746;19.678;2022-12-05T15:56:05;142.15;;;67.03;;
42978;SDS011;28616;44.746;19.678;2022-12-05T16:06:36;130.68;;;67.68;;
42978;SDS011;28616;44.746;19.678;2022-12-05T16:09:20;122.13;;;64.82;;
42978;SDS011;28616;44.746;19.678;2022-12-05T16:11:58;123.03;;;65.03;;
42978;SDS011;28616;44.746;19.678;2022-12-05T16:14:30;133.55;;;67.88;;
42978;SDS011;28616;44.746;19.678;2022-12-05T16:16:59;144.73;;;71.93;;
42978;SDS011;28616;44.746;19.678;2022-12-05T16:19:27;133.77;;;66.95;;
42978;SDS011;28616;44.746;19.678;2022-12-05T16:22:01;145.32;;;72.22;;
42978;SDS011;28616;44.746;19.678;2022-12-05T16:24:42;151.98;;;71.13;;
42978;SDS011;28616;44.746;19.678;2022-12-05T16:27:22;141.55;;;70.60;;
42978;SDS011;28616;44.746;19.678;2022-12-05T16:32:37;139.63;;;71.65;;
42978;SDS011;28616;44.746;19.678;2022-12-05T16:38:13;106.47;;;54.47;;
42978;SDS011;28616;44.746;19.678;2022-12-05T16:41:19;96.88;;;46.35;;
42978;SDS011;28616;44.746;19.678;2022-12-05T16:43:40;99.07;;;49.08;;
42978;SDS011;28616;44.746;19.678;2022-12-05T16:48:45;93.80;;;45.03;;
42978;SDS011;28616;44.746;19.678;2022-12-05T16:53:42;92.18;;;44.25;;
42978;SDS011;28616;44.746;19.678;2022-12-05T16:56:17;102.70;;;48.22;;
42978;SDS011;28616;44.746;19.678;2022-12-05T16:58:47;119.18;;;58.22;;
42978;SDS011;28616;44.746;19.678;2022-12-05T17:01:17;122.82;;;59.95;;
42978;SDS011;28616;44.746;19.678;2022-12-05T17:03:45;120.50;;;60.75;;
42978;SDS011;28616;44.746;19.678;2022-12-05T17:06:11;103.85;;;50.33;;
42978;SDS011;28616;44.746;19.678;2022-12-05T17:08:39;174.63;;;72.22;;
42978;SDS011;28616;44.746;19.678;2022-12-05T17:11:07;162.70;;;69.72;;
42978;SDS011;28616;44.746;19.678;2022-12-05T17:13:38;143.80;;;66.13;;
42978;SDS011;28616;44.746;19.678;2022-12-05T17:16:04;160.73;;;72.07;;
42978;SDS011;28616;44.746;19.678;2022-12-05T17:18:31;204.00;;;90.88;;
42978;SDS011;28616;44.746;19.678;2022-12-05T17:20:58;164.48;;;75.63;;
42978;SDS011;28616;44.746;19.678;2022-12-05T17:23:26;199.82;;;93.72;;
42978;SDS011;28616;44.746;19.678;2022-12-05T17:25:53;168.43;;;78.47;;
42978;SDS011;28616;44.746;19.678;2022-12-05T17:28:20;157.50;;;70.40;;
42978;SDS011;28616;44.746;19.678;2022-12-05T17:30:46;155.38;;;70.32;;
42978;SDS011;28616;44.746;19.678;2022-12-05T17:33:13;229.82;;;104.78;;
42978;SDS011;28616;44.746;19.678;2022-12-05T17:35:40;175.70;;;76.90;;
42978;SDS011;28616;44.746;19.678;2022-12-05T17:38:06;191.90;;;81.65;;
42978;SDS011;28616;44.746;19.678;2022-12-05T17:40:34;194.18;;;92.22;;
42978;SDS011;28616;44.746;19.678;2022-12-05T17:43:01;314.35;;;144.48;;
42978;SDS011;28616;44.746;19.678;2022-12-05T17:45:27;229.18;;;110.25;;
42978;SDS011;28616;44.746;19.678;2022-12-05T17:47:53;144.63;;;69.45;;
42978;SDS011;28616;44.746;19.678;2022-12-05T17:50:21;197.95;;;99.57;;
42978;SDS011;28616;44.746;19.678;2022-12-05T17:52:48;164.45;;;82.90;;
42978;SDS011;28616;44.746;19.678;2022-12-05T17:55:21;132.85;;;67.07;;
42978;SDS011;28616;44.746;19.678;2022-12-05T17:57:49;134.20;;;67.38;;
42978;SDS011;28616;44.746;19.678;2022-12-05T18:00:16;135.55;;;67.63;;
42978;SDS011;28616;44.746;19.678;2022-12-05T18:02:43;175.45;;;94.18;;
42978;SDS011;28616;44.746;19.678;2022-12-05T18:05:10;195.23;;;99.28;;
42978;SDS011;28616;44.746;19.678;2022-12-05T18:07:38;169.35;;;87.65;;